createdAt,value
2018-03-22T00:01:38.564Z,-0.90
2018-03-22T00:04:06.032Z,-0.90
2018-03-22T00:06:33.481Z,-0.90
2018-03-22T00:09:00.950Z,-1.00
2018-03-22T00:11:28.411Z,-1.00
2018-03-22T00:13:55.850Z,-1.00
2018-03-22T00:16:23.285Z,-1.00
2018-03-22T00:18:50.788Z,-1.00
2018-03-22T00:21:18.235Z,-0.90
2018-03-22T00:23:45.720Z,-0.90
2018-03-22T00:26:13.222Z,-0.90
2018-03-22T00:28:40.682Z,-0.90
2018-03-22T00:31:08.555Z,-1.00
2018-03-22T00:33:36.755Z,-1.00
2018-03-22T00:36:04.196Z,-1.10
2018-03-22T00:38:31.641Z,-1.20
2018-03-22T00:40:59.136Z,-1.30
2018-03-22T00:43:26.583Z,-1.30
2018-03-22T00:45:54.031Z,-1.30
2018-03-22T00:48:21.489Z,-1.30
2018-03-22T00:50:48.947Z,-1.40
2018-03-22T00:53:16.385Z,-1.50
2018-03-22T00:55:43.860Z,-1.70
2018-03-22T00:58:11.300Z,-1.80
2018-03-22T01:00:38.741Z,-2.00
2018-03-22T01:03:06.186Z,-2.10
2018-03-22T01:05:33.616Z,-2.10
2018-03-22T01:08:01.065Z,-2.10
2018-03-22T01:10:28.499Z,-2.00
2018-03-22T01:12:55.945Z,-2.00
2018-03-22T01:15:24.148Z,-2.00
2018-03-22T01:17:51.596Z,-2.10
2018-03-22T01:20:19.028Z,-2.00
2018-03-22T01:22:46.487Z,-1.90
2018-03-22T01:25:13.941Z,-1.90
2018-03-22T01:27:41.399Z,-1.90
2018-03-22T01:30:20.519Z,-1.90
2018-03-22T01:32:47.959Z,-2.00
2018-03-22T01:35:15.391Z,-1.90
2018-03-22T01:37:42.843Z,-1.90
2018-03-22T01:40:10.288Z,-1.80
2018-03-22T01:42:37.727Z,-1.80
2018-03-22T01:45:05.935Z,-1.70
2018-03-22T01:47:33.398Z,-1.80
2018-03-22T01:50:00.850Z,-1.70
2018-03-22T01:52:28.324Z,-1.70
2018-03-22T01:54:55.767Z,-1.70
2018-03-22T01:57:23.220Z,-1.80
2018-03-22T01:59:50.699Z,-1.80
2018-03-22T02:02:18.140Z,-1.80
2018-03-22T02:04:45.588Z,-1.80
2018-03-22T02:07:13.033Z,-1.80
2018-03-22T02:09:40.488Z,-1.80
2018-03-22T02:12:07.928Z,-1.90
2018-03-22T02:14:35.377Z,-1.90
2018-03-22T02:17:02.819Z,-1.90
2018-03-22T02:19:30.247Z,-1.90
2018-03-22T02:21:57.731Z,-2.00
2018-03-22T02:24:25.151Z,-1.90
2018-03-22T02:26:52.602Z,-1.90
2018-03-22T02:29:20.135Z,-1.90
2018-03-22T02:31:47.600Z,-2.00
2018-03-22T02:34:15.033Z,-2.00
2018-03-22T02:36:42.485Z,-2.00
2018-03-22T02:39:09.941Z,-2.10
2018-03-22T02:41:37.393Z,-2.10
2018-03-22T02:44:04.836Z,-2.20
2018-03-22T02:46:32.272Z,-2.10
2018-03-22T02:48:59.735Z,-2.10
2018-03-22T02:51:27.233Z,-2.10
2018-03-22T02:53:54.706Z,-2.10
2018-03-22T02:56:22.123Z,-2.10
2018-03-22T02:58:49.576Z,-2.10
2018-03-22T03:01:17.017Z,-2.10
2018-03-22T03:03:44.464Z,-2.20
2018-03-22T03:06:11.919Z,-2.20
2018-03-22T03:08:39.347Z,-2.20
2018-03-22T03:11:06.804Z,-2.10
2018-03-22T03:13:35.002Z,-2.20
2018-03-22T03:16:02.464Z,-2.30
2018-03-22T03:18:29.896Z,-2.30
2018-03-22T03:20:57.349Z,-2.40
2018-03-22T03:23:25.544Z,-2.40
2018-03-22T03:25:53.002Z,-2.50
2018-03-22T03:28:20.454Z,-2.40
2018-03-22T03:30:47.892Z,-2.30
2018-03-22T03:33:15.339Z,-2.40
2018-03-22T03:35:42.805Z,-2.40
2018-03-22T03:38:10.249Z,-2.50
2018-03-22T03:40:37.687Z,-2.50
2018-03-22T03:43:05.144Z,-2.40
2018-03-22T03:45:32.596Z,-2.40
2018-03-22T03:48:00.063Z,-2.50
2018-03-22T03:50:27.481Z,-2.40
2018-03-22T03:52:54.923Z,-2.40
2018-03-22T03:55:22.356Z,-2.50
2018-03-22T03:57:49.831Z,-2.50
2018-03-22T04:00:17.265Z,-2.50
2018-03-22T04:02:44.707Z,-2.60
2018-03-22T04:05:12.161Z,-2.60
2018-03-22T04:07:39.591Z,-2.80
2018-03-22T04:10:07.040Z,-2.80
2018-03-22T04:12:34.498Z,-2.90
2018-03-22T04:15:01.941Z,-3.00
2018-03-22T04:17:29.372Z,-2.90
2018-03-22T04:19:57.604Z,-3.00
2018-03-22T04:22:25.041Z,-3.10
2018-03-22T04:24:52.540Z,-3.10
2018-03-22T04:27:19.996Z,-3.30
2018-03-22T04:29:47.434Z,-3.40
2018-03-22T04:32:14.881Z,-3.40
2018-03-22T04:34:42.388Z,-3.50
2018-03-22T04:37:09.786Z,-3.50
2018-03-22T04:39:37.223Z,-3.50
2018-03-22T04:42:04.669Z,-3.50
2018-03-22T04:44:32.116Z,-3.50
2018-03-22T04:46:59.552Z,-3.50
2018-03-22T04:49:27.005Z,-3.50
2018-03-22T04:51:54.449Z,-3.40
2018-03-22T04:54:21.903Z,-3.30
2018-03-22T04:56:49.343Z,-3.40
2018-03-22T04:59:16.797Z,-3.40
2018-03-22T05:01:44.240Z,-3.40
2018-03-22T05:04:11.753Z,-3.40
2018-03-22T05:06:39.192Z,-3.40
2018-03-22T05:09:06.648Z,-3.40
2018-03-22T05:11:34.088Z,-3.40
2018-03-22T05:14:01.542Z,-3.30
2018-03-22T05:16:28.976Z,-3.30
2018-03-22T05:18:56.428Z,-3.40
2018-03-22T05:21:23.875Z,-3.40
2018-03-22T05:23:52.068Z,-3.40
2018-03-22T05:26:19.520Z,-3.50
2018-03-22T05:28:46.960Z,-3.40
2018-03-22T05:31:14.410Z,-3.40
2018-03-22T05:33:41.838Z,-3.50
2018-03-22T05:36:09.295Z,-3.40
2018-03-22T05:38:36.751Z,-3.30
2018-03-22T05:41:04.188Z,-3.30
2018-03-22T05:43:31.639Z,-3.10
2018-03-22T05:45:59.900Z,-3.00
2018-03-22T05:48:27.565Z,-2.90
2018-03-22T05:50:55.840Z,-2.80
2018-03-22T05:53:23.296Z,-2.70
2018-03-22T05:55:50.743Z,-2.60
2018-03-22T05:58:18.943Z,-2.50
2018-03-22T06:00:46.424Z,-2.50
2018-03-22T06:03:13.875Z,-2.40
2018-03-22T06:05:41.336Z,-2.40
2018-03-22T06:08:08.767Z,-2.30
2018-03-22T06:10:36.219Z,-2.20
2018-03-22T06:13:03.668Z,-2.10
2018-03-22T06:15:31.101Z,-2.10
2018-03-22T06:17:58.556Z,-2.00
2018-03-22T06:20:26.016Z,-2.00
2018-03-22T06:22:53.441Z,-1.90
2018-03-22T06:25:20.887Z,-1.90
2018-03-22T06:27:48.335Z,-1.90
2018-03-22T06:30:15.774Z,-1.80
2018-03-22T06:32:43.336Z,-1.70
2018-03-22T06:35:10.765Z,-1.70
2018-03-22T06:37:38.986Z,-1.60
2018-03-22T06:40:06.482Z,-1.70
2018-03-22T06:42:33.862Z,-1.50
2018-03-22T06:45:01.311Z,-1.40
2018-03-22T06:47:28.749Z,-1.40
2018-03-22T06:49:56.210Z,-1.40
2018-03-22T06:52:23.639Z,-1.30
2018-03-22T06:54:51.081Z,-1.30
2018-03-22T06:57:18.540Z,-1.20
2018-03-22T06:59:45.977Z,-1.10
2018-03-22T07:02:13.457Z,-0.90
2018-03-22T07:04:40.910Z,-0.90
2018-03-22T07:07:08.348Z,-0.70
2018-03-22T07:09:35.799Z,-0.80
2018-03-22T07:12:03.220Z,-1.00
2018-03-22T07:14:30.664Z,-0.70
2018-03-22T07:16:58.144Z,-0.50
2018-03-22T07:19:25.647Z,-0.50
2018-03-22T07:21:54.035Z,-0.30
2018-03-22T07:24:21.496Z,-0.30
2018-03-22T07:26:48.937Z,-0.10
2018-03-22T07:29:16.373Z,0.00
2018-03-22T07:31:43.799Z,0.10
2018-03-22T07:34:11.303Z,0.10
2018-03-22T07:36:38.844Z,0.30
2018-03-22T07:39:06.326Z,0.30
2018-03-22T07:41:33.785Z,0.40
2018-03-22T07:44:06.930Z,0.20
2018-03-22T07:46:34.376Z,0.30
2018-03-22T07:49:01.820Z,0.40
2018-03-22T07:51:29.297Z,0.50
2018-03-22T07:53:56.716Z,0.50
2018-03-22T07:56:24.189Z,0.70
2018-03-22T07:58:51.612Z,0.90
2018-03-22T08:01:19.164Z,1.10
2018-03-22T08:03:47.896Z,1.20
2018-03-22T08:06:15.365Z,1.10
2018-03-22T08:08:42.847Z,1.30
2018-03-22T08:11:10.285Z,1.40
2018-03-22T08:13:37.767Z,1.50
2018-03-22T08:16:05.196Z,1.70
2018-03-22T08:18:32.668Z,1.70
2018-03-22T08:21:00.146Z,1.70
2018-03-22T08:23:27.642Z,2.00
2018-03-22T08:25:55.079Z,2.00
2018-03-22T08:28:22.556Z,2.20
2018-03-22T08:30:50.039Z,2.50
2018-03-22T08:33:17.496Z,2.70
2018-03-22T08:35:44.960Z,3.00
2018-03-22T08:38:12.446Z,3.30
2018-03-22T08:40:40.659Z,3.50
2018-03-22T08:43:08.123Z,3.40
2018-03-22T08:45:35.564Z,3.60
2018-03-22T08:48:03.032Z,3.60
2018-03-22T08:50:30.477Z,3.70
2018-03-22T08:52:57.928Z,3.70
2018-03-22T08:55:25.386Z,4.10
2018-03-22T08:57:53.577Z,4.70
2018-03-22T09:00:21.031Z,4.60
2018-03-22T09:02:48.453Z,4.90
2018-03-22T09:05:15.900Z,4.60
2018-03-22T09:07:43.335Z,4.70
2018-03-22T09:10:10.789Z,4.90
2018-03-22T09:12:38.213Z,4.90
2018-03-22T09:15:05.661Z,4.80
2018-03-22T09:17:33.111Z,4.90
2018-03-22T09:20:00.532Z,4.40
2018-03-22T09:22:28.003Z,4.30
2018-03-22T09:24:55.438Z,4.10
2018-03-22T09:27:22.932Z,4.30
2018-03-22T09:29:50.365Z,4.50
2018-03-22T09:32:17.828Z,4.60
2018-03-22T09:34:45.282Z,4.70
2018-03-22T09:37:12.756Z,4.80
2018-03-22T09:39:40.206Z,4.50
2018-03-22T09:42:07.674Z,4.40
2018-03-22T09:44:35.112Z,4.20
2018-03-22T09:47:02.543Z,4.40
2018-03-22T09:49:30.035Z,4.60
2018-03-22T09:51:57.477Z,4.90
2018-03-22T09:54:24.908Z,5.10
2018-03-22T09:56:52.353Z,5.50
2018-03-22T09:59:19.805Z,5.90
2018-03-22T10:01:47.280Z,6.20
2018-03-22T10:04:14.728Z,6.00
2018-03-22T10:06:42.180Z,6.20
2018-03-22T10:09:09.632Z,6.30
2018-03-22T10:11:37.143Z,6.00
2018-03-22T10:14:04.591Z,5.90
2018-03-22T10:16:32.026Z,6.10
2018-03-22T10:18:59.472Z,6.20
2018-03-22T10:21:26.921Z,6.10
2018-03-22T10:23:54.399Z,5.70
2018-03-22T10:26:21.879Z,5.70
2018-03-22T10:28:49.392Z,5.30
2018-03-22T10:31:16.800Z,5.00
2018-03-22T10:33:44.276Z,5.20
2018-03-22T10:36:11.775Z,5.20
2018-03-22T10:38:39.241Z,5.60
2018-03-22T10:41:06.673Z,6.10
2018-03-22T10:43:34.115Z,6.80
2018-03-22T10:46:01.540Z,7.00
2018-03-22T10:48:29.020Z,7.20
2018-03-22T10:50:56.419Z,7.40
2018-03-22T10:53:23.884Z,7.00
2018-03-22T10:55:51.388Z,7.20
2018-03-22T10:58:18.812Z,7.30
2018-03-22T11:00:51.821Z,7.80
2018-03-22T11:03:25.796Z,10.20
2018-03-22T11:05:53.236Z,10.10
2018-03-22T11:08:20.711Z,10.50
2018-03-22T11:10:48.171Z,10.70
2018-03-22T11:13:15.616Z,11.30
2018-03-22T11:15:43.068Z,11.70
2018-03-22T11:18:10.501Z,12.80
2018-03-22T11:20:37.944Z,13.30
2018-03-22T11:23:06.157Z,13.30
2018-03-22T11:25:33.608Z,13.20
2018-03-22T11:28:01.059Z,13.10
2018-03-22T11:30:28.513Z,13.30
2018-03-22T11:32:55.964Z,13.00
2018-03-22T11:35:23.439Z,12.60
2018-03-22T11:37:50.893Z,12.30
2018-03-22T11:40:18.524Z,12.00
2018-03-22T11:42:45.984Z,11.60
2018-03-22T11:45:13.451Z,11.90
2018-03-22T11:47:40.936Z,12.30
2018-03-22T11:50:09.188Z,13.60
2018-03-22T11:52:36.680Z,13.50
2018-03-22T11:55:04.131Z,14.70
2018-03-22T11:57:31.573Z,15.80
2018-03-22T11:59:59.032Z,15.30
2018-03-22T12:02:26.559Z,14.50
2018-03-22T12:04:54.036Z,13.80
2018-03-22T12:07:21.526Z,15.40
2018-03-22T12:09:48.922Z,17.80
2018-03-22T12:12:16.372Z,19.30
2018-03-22T12:14:43.815Z,19.30
2018-03-22T12:17:11.265Z,18.10
2018-03-22T12:19:38.691Z,17.40
2018-03-22T12:22:06.152Z,16.70
2018-03-22T12:24:33.747Z,15.90
2018-03-22T12:27:01.147Z,16.30
2018-03-22T12:29:28.636Z,16.10
2018-03-22T12:31:56.078Z,16.00
2018-03-22T12:34:23.557Z,16.00
2018-03-22T12:36:51.016Z,15.50
2018-03-22T12:39:18.477Z,15.10
2018-03-22T12:41:45.905Z,14.70
2018-03-22T12:44:13.352Z,13.70
2018-03-22T12:46:40.840Z,13.90
2018-03-22T12:49:08.280Z,13.90
2018-03-22T12:51:35.756Z,13.40
2018-03-22T12:54:04.595Z,12.80
2018-03-22T12:56:32.800Z,12.80
2018-03-22T12:59:00.270Z,12.80
2018-03-22T13:01:27.700Z,12.50
2018-03-22T13:03:55.147Z,12.50
2018-03-22T13:06:22.603Z,12.10
2018-03-22T13:08:50.063Z,11.60
2018-03-22T13:11:17.542Z,11.00
2018-03-22T13:13:45.009Z,10.90
2018-03-22T13:16:12.482Z,10.90
2018-03-22T13:18:39.971Z,11.00
2018-03-22T13:21:07.417Z,11.00
2018-03-22T13:23:34.943Z,10.80
2018-03-22T13:26:02.388Z,10.60
2018-03-22T13:28:30.005Z,10.50
2018-03-22T13:30:58.246Z,11.10
2018-03-22T13:33:25.679Z,11.10
2018-03-22T13:35:53.156Z,11.80
2018-03-22T13:38:20.600Z,12.80
2018-03-22T13:40:48.040Z,14.00
2018-03-22T13:43:15.547Z,15.30
2018-03-22T13:45:42.981Z,17.30
2018-03-22T13:48:10.445Z,18.40
2018-03-22T13:50:38.067Z,18.70
2018-03-22T13:53:05.584Z,19.10
2018-03-22T13:55:33.049Z,19.40
2018-03-22T13:58:00.530Z,18.40
2018-03-22T14:00:27.998Z,19.10
2018-03-22T14:02:56.628Z,18.60
2018-03-22T14:05:24.124Z,18.30
2018-03-22T14:07:51.571Z,18.10
2018-03-22T14:10:19.026Z,17.20
2018-03-22T14:12:46.460Z,17.40
2018-03-22T14:15:13.906Z,16.40
2018-03-22T14:17:41.364Z,16.30
2018-03-22T14:20:08.829Z,15.70
2018-03-22T14:22:51.398Z,14.10
2018-03-22T14:25:18.897Z,13.70
2018-03-22T14:27:46.332Z,13.50
2018-03-22T14:30:13.788Z,13.20
2018-03-22T14:32:41.217Z,12.80
2018-03-22T14:35:08.694Z,12.30
2018-03-22T14:37:36.159Z,12.00
2018-03-22T14:40:03.577Z,12.00
2018-03-22T14:42:31.064Z,12.10
2018-03-22T14:44:58.537Z,12.10
2018-03-22T14:47:25.972Z,11.80
2018-03-22T14:49:53.405Z,11.70
2018-03-22T14:52:20.902Z,12.00
2018-03-22T14:54:48.572Z,12.20
2018-03-22T14:57:16.029Z,12.40
2018-03-22T14:59:43.469Z,12.00
2018-03-22T15:02:10.931Z,11.90
2018-03-22T15:04:38.399Z,11.40
2018-03-22T15:07:05.867Z,10.90
2018-03-22T15:09:33.334Z,10.70
2018-03-22T15:12:00.793Z,10.50
2018-03-22T15:14:28.300Z,10.20
2018-03-22T15:16:56.005Z,10.10
2018-03-22T15:19:23.427Z,9.80
2018-03-22T15:21:50.873Z,9.50
2018-03-22T15:24:18.334Z,9.40
2018-03-22T15:26:45.822Z,9.30
2018-03-22T15:29:13.241Z,9.30
2018-03-22T15:31:40.688Z,9.30
2018-03-22T15:34:08.916Z,9.60
2018-03-22T15:36:36.336Z,9.50
2018-03-22T15:39:04.056Z,9.50
2018-03-22T15:41:31.492Z,9.30
2018-03-22T15:43:58.960Z,9.10
2018-03-22T15:46:26.442Z,8.80
2018-03-22T15:48:53.901Z,8.50
2018-03-22T15:51:22.112Z,8.10
2018-03-22T15:53:49.600Z,8.00
2018-03-22T15:56:16.994Z,7.90
2018-03-22T15:58:45.275Z,7.60
2018-03-22T16:01:12.779Z,7.60
2018-03-22T16:03:40.214Z,7.60
2018-03-22T16:06:07.684Z,7.40
2018-03-22T16:08:35.207Z,7.20
2018-03-22T16:11:02.660Z,7.10
2018-03-22T16:13:30.118Z,6.90
2018-03-22T16:15:57.561Z,6.70
2018-03-22T16:18:25.032Z,6.60
2018-03-22T16:20:52.514Z,6.40
2018-03-22T16:23:20.153Z,6.40
2018-03-22T16:25:48.402Z,6.20
2018-03-22T16:28:15.821Z,6.10
2018-03-22T16:30:43.283Z,6.00
2018-03-22T16:33:10.760Z,6.00
2018-03-22T16:35:38.197Z,5.80
2018-03-22T16:38:05.675Z,5.60
2018-03-22T16:40:33.140Z,5.40
2018-03-22T16:43:00.587Z,5.10
2018-03-22T16:45:28.212Z,5.00
2018-03-22T16:47:55.645Z,5.00
2018-03-22T16:50:23.093Z,4.90
2018-03-22T16:52:50.561Z,4.90
2018-03-22T16:55:18.794Z,4.80
2018-03-22T16:57:46.318Z,4.70
2018-03-22T17:00:13.792Z,4.80
2018-03-22T17:02:41.258Z,4.70
2018-03-22T17:05:08.698Z,4.70
2018-03-22T17:07:36.232Z,4.60
2018-03-22T17:10:03.716Z,4.50
2018-03-22T17:12:31.151Z,4.50
2018-03-22T17:14:58.599Z,4.40
2018-03-22T17:17:26.063Z,4.20
2018-03-22T17:19:53.531Z,4.20
2018-03-22T17:22:20.967Z,4.00
2018-03-22T17:24:48.436Z,3.90
2018-03-22T17:27:15.891Z,3.90
2018-03-22T17:29:43.362Z,3.90
2018-03-22T17:32:10.824Z,3.80
2018-03-22T17:34:38.324Z,3.70
2018-03-22T17:37:05.791Z,3.70
2018-03-22T17:39:33.267Z,3.70
2018-03-22T17:42:00.700Z,3.70
2018-03-22T17:44:28.144Z,3.70
2018-03-22T17:46:55.603Z,3.70
2018-03-22T17:49:23.059Z,3.40
2018-03-22T17:51:50.511Z,3.20
2018-03-22T17:54:17.985Z,3.10
2018-03-22T17:56:45.438Z,3.00
2018-03-22T17:59:12.895Z,3.00
2018-03-22T18:01:40.335Z,2.90
2018-03-22T18:04:07.808Z,3.00
2018-03-22T18:06:35.317Z,2.80
2018-03-22T18:09:02.758Z,2.80
2018-03-22T18:11:30.983Z,2.70
2018-03-22T18:13:58.489Z,2.60
2018-03-22T18:16:26.710Z,2.70
2018-03-22T18:18:54.176Z,2.70
2018-03-22T18:21:21.616Z,2.70
2018-03-22T18:23:49.078Z,2.70
2018-03-22T18:26:16.535Z,2.60
2018-03-22T18:28:43.975Z,2.50
2018-03-22T18:31:11.429Z,2.40
2018-03-22T18:33:38.883Z,2.30
2018-03-22T18:36:06.565Z,2.30
2018-03-22T18:38:33.968Z,2.30
2018-03-22T18:41:01.432Z,2.40
2018-03-22T18:43:28.897Z,2.40
2018-03-22T18:45:56.335Z,2.50
2018-03-22T18:48:23.796Z,2.40
2018-03-22T18:50:51.255Z,2.40
2018-03-22T18:53:19.468Z,2.30
2018-03-22T18:55:46.920Z,2.20
2018-03-22T18:58:14.573Z,2.20
2018-03-22T19:00:42.012Z,2.10
2018-03-22T19:03:09.460Z,2.20
2018-03-22T19:05:36.904Z,2.10
2018-03-22T19:08:04.379Z,2.20
2018-03-22T19:10:31.804Z,2.10
2018-03-22T19:12:59.241Z,2.10
2018-03-22T19:15:26.708Z,2.00
2018-03-22T19:17:54.156Z,2.00
2018-03-22T19:20:21.716Z,1.90
2018-03-22T19:22:49.176Z,1.90
2018-03-22T19:25:16.612Z,1.80
2018-03-22T19:27:44.134Z,1.80
2018-03-22T19:30:11.569Z,1.80
2018-03-22T19:32:39.020Z,1.90
2018-03-22T19:35:06.460Z,1.80
2018-03-22T19:37:33.917Z,1.90
2018-03-22T19:40:01.376Z,1.90
2018-03-22T19:42:28.829Z,1.90
2018-03-22T19:44:56.272Z,1.80
2018-03-22T19:47:23.724Z,1.70
2018-03-22T19:49:51.167Z,1.70
2018-03-22T19:52:18.625Z,1.80
2018-03-22T19:54:46.067Z,1.80
2018-03-22T19:57:13.547Z,1.80
2018-03-22T19:59:41.012Z,1.90
2018-03-22T20:02:08.456Z,1.80
2018-03-22T20:04:35.916Z,1.80
2018-03-22T20:07:03.374Z,1.80
2018-03-22T20:09:30.815Z,1.80
2018-03-22T20:11:58.271Z,1.90
2018-03-22T20:14:25.731Z,1.80
2018-03-22T20:16:53.172Z,1.90
2018-03-22T20:19:20.630Z,1.90
2018-03-22T20:21:48.109Z,2.00
2018-03-22T20:24:16.327Z,1.90
2018-03-22T20:26:43.936Z,1.90
2018-03-22T20:29:11.388Z,2.00
2018-03-22T20:31:38.830Z,2.00
2018-03-22T20:34:06.284Z,2.00
2018-03-22T20:36:33.725Z,1.90
2018-03-22T20:39:01.191Z,1.90
2018-03-22T20:41:28.652Z,2.10
2018-03-22T20:43:56.090Z,2.10
2018-03-22T20:46:23.544Z,2.10
2018-03-22T20:48:51.063Z,2.10
2018-03-22T20:51:19.287Z,2.10
2018-03-22T20:53:46.725Z,2.00
2018-03-22T20:56:14.189Z,2.00
2018-03-22T20:58:41.630Z,2.10
2018-03-22T21:01:09.141Z,2.10
2018-03-22T21:03:36.609Z,2.10
2018-03-22T21:06:04.107Z,2.00
2018-03-22T21:08:31.502Z,2.10
2018-03-22T21:10:58.960Z,2.10
2018-03-22T21:13:26.417Z,2.20
2018-03-22T21:15:53.884Z,2.20
2018-03-22T21:18:21.332Z,2.10
2018-03-22T21:20:48.838Z,2.10
2018-03-22T21:23:16.239Z,2.00
2018-03-22T21:25:43.688Z,2.10
2018-03-22T21:28:11.143Z,2.20
2018-03-22T21:30:38.768Z,2.20
2018-03-22T21:33:06.952Z,2.30
2018-03-22T21:35:34.413Z,2.30
2018-03-22T21:38:01.878Z,2.10
2018-03-22T21:40:29.310Z,2.20
2018-03-22T21:42:56.760Z,2.20
2018-03-22T21:45:24.204Z,2.30
2018-03-22T21:47:51.677Z,2.20
2018-03-22T21:50:19.115Z,2.20
2018-03-22T21:52:46.558Z,2.10
2018-03-22T21:55:14.016Z,2.00
2018-03-22T21:57:41.457Z,1.90
2018-03-22T22:00:08.905Z,2.10
2018-03-22T22:02:36.355Z,2.10
2018-03-22T22:05:03.817Z,2.30
2018-03-22T22:07:31.269Z,2.10
2018-03-22T22:09:58.707Z,2.00
2018-03-22T22:12:26.172Z,2.10
2018-03-22T22:14:53.612Z,2.10
2018-03-22T22:17:21.067Z,2.00
2018-03-22T22:19:48.504Z,1.80
2018-03-22T22:22:15.958Z,1.60
2018-03-22T22:24:43.415Z,1.50
2018-03-22T22:27:10.875Z,1.50
2018-03-22T22:29:38.327Z,1.50
2018-03-22T22:32:05.763Z,1.40
2018-03-22T22:34:33.213Z,1.40
2018-03-22T22:37:00.673Z,1.50
2018-03-22T22:39:28.110Z,1.50
2018-03-22T22:41:55.551Z,1.50
2018-03-22T22:44:22.998Z,1.50
2018-03-22T22:46:51.227Z,1.60
2018-03-22T22:49:18.663Z,1.50
2018-03-22T22:51:46.114Z,1.60
2018-03-22T22:54:13.618Z,1.50
2018-03-22T22:56:41.083Z,1.60
2018-03-22T22:59:08.536Z,1.70
2018-03-22T23:01:35.972Z,1.60
2018-03-22T23:04:03.438Z,1.70
2018-03-22T23:06:31.680Z,1.70
2018-03-22T23:08:59.129Z,1.80
2018-03-22T23:11:26.596Z,1.90
2018-03-22T23:13:54.037Z,1.80
2018-03-22T23:16:21.473Z,1.80
2018-03-22T23:18:49.756Z,1.70
2018-03-22T23:21:17.191Z,1.70
2018-03-22T23:23:44.632Z,1.80
2018-03-22T23:26:12.068Z,1.80
2018-03-22T23:28:39.648Z,1.80
2018-03-22T23:31:07.088Z,1.90
2018-03-22T23:33:34.527Z,2.00
2018-03-22T23:36:02.027Z,2.00
2018-03-22T23:38:29.459Z,2.00
2018-03-22T23:40:56.994Z,2.00
2018-03-22T23:43:24.621Z,2.00
2018-03-22T23:45:52.109Z,2.00
2018-03-22T23:48:19.605Z,2.10
2018-03-22T23:50:47.048Z,2.10
2018-03-22T23:53:14.492Z,2.10
2018-03-22T23:55:41.940Z,2.00
2018-03-22T23:58:09.391Z,2.00
